Time;durP1;ratioP1;P1;durP2;ratioP2;P2;SDS_P1;SDS_P2;PMS_P1;PMS_P2;Temp;Humidity;BMP_temperature;BMP_pressure;BME280_temperature;BME280_humidity;BME280_pressure;Samples;Min_cycle;Max_cycle;Signal;HPM_P1;HPM_P2
2022/07/24 00:02:09;;;;;;;5.25;4.75;;;29.00;53.80;;;;;;5034303;28;20167;-75
2022/07/24 00:04:35;;;;;;;5.20;4.80;;;29.00;54.00;;;;;;5034324;28;20033;-75
2022/07/24 00:07:01;;;;;;;4.78;4.47;;;29.00;54.20;;;;;;5033199;28;20067;-74
2022/07/24 00:09:27;;;;;;;6.07;4.68;;;28.90;54.30;;;;;;5032924;28;20399;-74
2022/07/24 00:11:53;;;;;;;5.53;4.50;;;28.90;54.50;;;;;;5034066;28;20029;-75
2022/07/24 00:14:19;;;;;;;4.63;4.25;;;28.90;54.60;;;;;;5032143;28;20028;-75
2022/07/24 00:16:44;;;;;;;5.75;5.20;;;28.90;54.60;;;;;;5032541;28;20026;-75
2022/07/24 00:19:10;;;;;;;6.07;4.88;;;28.80;54.70;;;;;;5034169;28;20114;-75
2022/07/24 00:21:36;;;;;;;5.13;4.60;;;28.80;54.80;;;;;;5033901;28;20029;-75
2022/07/24 00:24:01;;;;;;;5.03;4.65;;;28.80;54.80;;;;;;5033909;28;20468;-75
2022/07/24 00:26:27;;;;;;;5.45;5.00;;;28.70;55.00;;;;;;5033951;28;20029;-75
2022/07/24 00:28:53;;;;;;;5.55;5.05;;;28.70;55.20;;;;;;5043910;28;20485;-75
2022/07/24 00:31:19;;;;;;;5.05;4.43;;;28.70;55.20;;;;;;5052048;28;20147;-75
2022/07/24 00:33:45;;;;;;;5.80;4.90;;;28.70;55.30;;;;;;5053827;28;20013;-75
2022/07/24 00:36:10;;;;;;;5.07;4.78;;;28.70;55.50;;;;;;5052382;28;20029;-75
2022/07/24 00:38:36;;;;;;;4.90;4.57;;;28.60;55.50;;;;;;5052332;28;20095;-75
2022/07/24 00:41:02;;;;;;;5.10;4.80;;;28.70;55.50;;;;;;5053565;28;20060;-75
2022/07/24 00:43:28;;;;;;;5.07;4.68;;;28.60;55.40;;;;;;5053532;28;20021;-75
2022/07/24 00:45:53;;;;;;;5.05;4.65;;;28.70;56.20;;;;;;5053288;28;20024;-75
2022/07/24 00:48:19;;;;;;;5.82;5.32;;;28.60;55.50;;;;;;5053555;28;20021;-75
2022/07/24 00:50:46;;;;;;;5.78;5.20;;;28.60;55.70;;;;;;5053143;28;20090;-75
2022/07/24 00:53:12;;;;;;;4.88;4.57;;;28.60;55.80;;;;;;5053399;28;20059;-75
2022/07/24 00:55:38;;;;;;;6.25;4.35;;;28.60;55.90;;;;;;5053475;28;20052;-75
2022/07/24 00:58:04;;;;;;;5.20;4.80;;;28.60;55.90;;;;;;5053011;28;20044;-75
2022/07/24 01:00:30;;;;;;;7.00;5.55;;;28.50;55.90;;;;;;5051841;28;20059;-74
2022/07/24 01:02:56;;;;;;;6.13;5.15;;;28.50;55.90;;;;;;5053211;28;20053;-75
2022/07/24 01:05:22;;;;;;;5.70;5.20;;;28.50;56.10;;;;;;5053083;28;20150;-74
2022/07/24 01:07:48;;;;;;;7.07;4.93;;;28.50;56.00;;;;;;5053155;28;20043;-74
2022/07/24 01:10:14;;;;;;;5.20;4.72;;;28.50;56.80;;;;;;5053130;28;20021;-75
2022/07/24 01:12:41;;;;;;;5.55;5.03;;;28.50;56.10;;;;;;5051453;28;20025;-75
2022/07/24 01:15:10;;;;;;;5.45;5.03;;;28.50;56.10;;;;;;5052794;28;20025;-75
2022/07/24 01:17:39;;;;;;;5.85;5.07;;;28.50;56.20;;;;;;5052733;28;20029;-75
2022/07/24 01:20:06;;;;;;;5.80;4.85;;;28.50;56.20;;;;;;5053003;28;20025;-75
2022/07/24 01:22:32;;;;;;;5.63;5.13;;;28.50;56.30;;;;;;5052600;28;20136;-75
2022/07/24 01:24:58;;;;;;;4.63;4.28;;;28.50;56.30;;;;;;5052692;28;20045;-75
2022/07/24 01:27:24;;;;;;;5.10;4.68;;;28.50;56.20;;;;;;5052687;28;20025;-75
2022/07/24 01:29:51;;;;;;;4.10;3.80;;;28.50;56.20;;;;;;5052744;28;20044;-75
2022/07/24 01:32:17;;;;;;;4.60;4.30;;;28.40;56.20;;;;;;5051135;28;20037;-75
2022/07/24 01:34:43;;;;;;;4.45;4.15;;;28.40;56.10;;;;;;5052650;28;20028;-74
2022/07/24 01:37:09;;;;;;;5.38;4.90;;;28.50;56.30;;;;;;5052527;28;20639;-75
2022/07/24 01:39:34;;;;;;;6.35;4.30;;;28.50;56.30;;;;;;5052400;28;20032;-75
2022/07/24 01:42:00;;;;;;;5.05;4.70;;;28.50;56.20;;;;;;5052454;28;20025;-74
2022/07/24 01:44:26;;;;;;;5.30;4.30;;;28.50;56.20;;;;;;5050924;28;20021;-75
2022/07/24 01:46:52;;;;;;;5.18;4.68;;;28.60;56.20;;;;;;5052251;28;20032;-75
2022/07/24 01:49:17;;;;;;;4.32;3.92;;;28.50;56.20;;;;;;5052387;28;20471;-75
2022/07/24 01:51:43;;;;;;;5.30;4.70;;;28.50;56.30;;;;;;5050874;28;20025;-75
2022/07/24 01:54:09;;;;;;;5.13;4.70;;;28.50;56.30;;;;;;5050859;28;20074;-75
2022/07/24 01:56:34;;;;;;;5.28;3.80;;;28.50;56.50;;;;;;5052213;28;20107;-75
2022/07/24 01:59:00;;;;;;;4.93;4.47;;;28.40;56.60;;;;;;5050472;28;20083;-75
2022/07/24 02:01:29;;;;;;;5.15;4.75;;;28.40;56.70;;;;;;5050604;28;20112;-74
2022/07/24 02:03:54;;;;;;;4.85;4.53;;;28.40;56.80;;;;;;5052244;28;20024;-75
2022/07/24 02:06:20;;;;;;;4.70;4.30;;;28.40;56.90;;;;;;5051923;28;20396;-75
2022/07/24 02:08:46;;;;;;;7.30;5.10;;;28.40;57.00;;;;;;5051924;28;20036;-75
2022/07/24 02:11:12;;;;;;;5.20;4.68;;;28.40;57.00;;;;;;5052018;28;20021;-75
2022/07/24 02:13:38;;;;;;;5.30;4.90;;;28.40;57.10;;;;;;5050458;28;20079;-75
2022/07/24 02:16:04;;;;;;;4.53;4.22;;;28.40;57.20;;;;;;5050417;28;20487;-75
2022/07/24 02:18:29;;;;;;;6.47;4.70;;;28.30;57.10;;;;;;5051896;28;20036;-75
2022/07/24 02:20:55;;;;;;;5.60;5.10;;;28.30;57.10;;;;;;5048692;28;20013;-75
2022/07/24 02:23:21;;;;;;;4.68;4.38;;;28.30;57.30;;;;;;5051967;28;20024;-75
2022/07/24 02:25:48;;;;;;;4.78;4.40;;;28.30;57.20;;;;;;5051171;28;20021;-74
2022/07/24 02:28:14;;;;;;;5.07;4.72;;;28.30;57.30;;;;;;5052337;28;20032;-75
2022/07/24 02:30:40;;;;;;;5.07;4.78;;;28.30;57.20;;;;;;5052025;28;20021;-75
2022/07/24 02:33:06;;;;;;;4.47;4.03;;;28.40;57.30;;;;;;5051509;28;20104;-75
2022/07/24 02:35:32;;;;;;;4.30;4.00;;;28.40;57.10;;;;;;5051438;28;20116;-75
2022/07/24 02:37:58;;;;;;;5.32;4.75;;;28.40;57.30;;;;;;5052413;28;20450;-76
2022/07/24 02:40:24;;;;;;;7.13;5.00;;;28.30;57.30;;;;;;5052052;28;20029;-75
2022/07/24 02:42:49;;;;;;;5.03;4.72;;;28.30;57.40;;;;;;5051825;28;20440;-76
2022/07/24 02:45:15;;;;;;;5.50;5.10;;;28.30;57.50;;;;;;5050566;28;20029;-76
2022/07/24 02:47:52;;;;;;;5.38;4.88;;;28.30;57.50;;;;;;5051833;28;20017;-75
2022/07/24 02:50:20;;;;;;;5.28;4.88;;;28.30;57.70;;;;;;5051700;28;20074;-76
2022/07/24 02:52:47;;;;;;;4.63;4.32;;;28.30;58.00;;;;;;5050910;28;20394;-76
2022/07/24 02:55:13;;;;;;;5.38;4.97;;;28.20;58.10;;;;;;5051100;28;20035;-75
2022/07/24 02:57:38;;;;;;;5.63;5.10;;;28.20;58.20;;;;;;5050903;28;20021;-75
2022/07/24 03:00:07;;;;;;;4.82;4.43;;;28.20;58.10;;;;;;5052178;28;20110;-75
2022/07/24 03:02:33;;;;;;;7.28;4.63;;;28.20;58.10;;;;;;5051108;28;20052;-75
2022/07/24 03:04:59;;;;;;;5.57;5.03;;;28.20;57.90;;;;;;5051138;28;20033;-75
2022/07/24 03:07:24;;;;;;;4.90;4.53;;;28.20;57.90;;;;;;5052025;28;20086;-75
2022/07/24 03:09:50;;;;;;;4.82;4.43;;;28.20;57.80;;;;;;5051200;28;20044;-75
2022/07/24 03:12:16;;;;;;;5.45;4.53;;;28.30;57.90;;;;;;5051025;28;20104;-75
2022/07/24 03:14:41;;;;;;;4.47;4.07;;;28.20;58.00;;;;;;5052555;28;20531;-75
2022/07/24 03:17:07;;;;;;;5.88;5.10;;;28.20;58.10;;;;;;5051273;28;20490;-75
2022/07/24 03:19:33;;;;;;;5.43;4.47;;;28.10;58.10;;;;;;5052355;28;20029;-76
2022/07/24 03:21:59;;;;;;;5.55;4.53;;;28.10;58.10;;;;;;5051138;28;20421;-76
2022/07/24 03:24:24;;;;;;;4.70;4.35;;;28.10;58.20;;;;;;5051668;28;20466;-76
2022/07/24 03:26:50;;;;;;;4.57;4.28;;;28.10;58.30;;;;;;5051180;28;20021;-76
2022/07/24 03:29:16;;;;;;;5.28;4.88;;;28.00;58.30;;;;;;5051289;28;20051;-76
2022/07/24 03:31:42;;;;;;;8.18;4.40;;;28.00;58.50;;;;;;5049981;28;20219;-76
2022/07/24 03:34:08;;;;;;;4.97;4.65;;;28.00;58.60;;;;;;5051145;28;20122;-76
2022/07/24 03:36:34;;;;;;;4.80;4.30;;;28.00;58.70;;;;;;5051267;28;20104;-75
2022/07/24 03:39:00;;;;;;;4.35;4.00;;;28.00;59.20;;;;;;5051232;28;20593;-76
2022/07/24 03:41:26;;;;;;;5.95;4.55;;;28.00;58.50;;;;;;5053446;28;20386;-76
2022/07/24 03:43:51;;;;;;;4.30;4.03;;;28.00;58.50;;;;;;5053683;28;20118;-76
2022/07/24 03:46:17;;;;;;;4.47;4.07;;;28.00;58.50;;;;;;5054762;28;20067;-76
2022/07/24 03:48:43;;;;;;;4.50;4.20;;;27.90;58.60;;;;;;5053446;28;20029;-76
2022/07/24 03:51:09;;;;;;;4.97;4.20;;;27.90;58.70;;;;;;5054819;28;20615;-76
2022/07/24 03:53:34;;;;;;;5.15;4.72;;;27.90;58.80;;;;;;5054472;28;20028;-76
2022/07/24 03:56:05;;;;;;;4.93;4.43;;;27.80;59.00;;;;;;5054563;28;20486;-76
2022/07/24 03:58:30;;;;;;;4.30;4.00;;;27.80;59.10;;;;;;5042622;28;20415;-76
2022/07/24 04:00:56;;;;;;;5.45;4.70;;;27.80;59.30;;;;;;5034666;28;20018;-75
2022/07/24 04:03:22;;;;;;;5.20;4.45;;;27.80;59.40;;;;;;5033142;28;20502;-76
2022/07/24 04:05:47;;;;;;;4.93;4.53;;;27.90;59.70;;;;;;5033233;28;20049;-75
2022/07/24 04:08:13;;;;;;;5.22;4.70;;;27.90;59.90;;;;;;5033171;28;20120;-76
2022/07/24 04:10:39;;;;;;;6.00;5.35;;;27.90;60.50;;;;;;5034433;28;20036;-76
2022/07/24 04:13:04;;;;;;;5.90;5.50;;;27.90;61.30;;;;;;5034326;28;20017;-76
2022/07/24 04:15:30;;;;;;;6.43;5.82;;;27.80;61.90;;;;;;5052880;28;20044;-76
2022/07/24 04:17:56;;;;;;;6.43;5.82;;;27.90;61.30;;;;;;5052858;28;20025;-76
2022/07/24 04:20:22;;;;;;;6.18;5.47;;;27.90;61.10;;;;;;5052931;28;20025;-76
2022/07/24 04:22:47;;;;;;;6.57;6.07;;;27.90;61.30;;;;;;5052887;28;20029;-76
2022/07/24 04:25:13;;;;;;;6.82;5.78;;;27.90;61.60;;;;;;5054096;28;20039;-76
2022/07/24 04:27:39;;;;;;;5.85;5.45;;;28.00;62.70;;;;;;5054053;28;20036;-76
2022/07/24 04:30:06;;;;;;;6.80;6.30;;;27.90;63.00;;;;;;5053844;28;20394;-75
2022/07/24 04:32:32;;;;;;;7.18;6.00;;;27.90;63.50;;;;;;5053918;28;20162;-76
2022/07/24 04:34:58;;;;;;;6.57;6.00;;;27.90;64.00;;;;;;5054066;28;20021;-76
2022/07/24 04:37:23;;;;;;;6.47;5.97;;;27.80;64.50;;;;;;5053691;28;20107;-76
2022/07/24 04:39:49;;;;;;;7.47;6.15;;;27.80;65.30;;;;;;5052513;28;20482;-76
2022/07/24 04:42:15;;;;;;;6.97;6.32;;;27.70;66.00;;;;;;5053856;28;20024;-76
2022/07/24 04:44:41;;;;;;;9.48;5.90;;;27.70;67.10;;;;;;5052438;28;20025;-76
2022/07/24 04:47:06;;;;;;;9.38;6.15;;;27.70;67.20;;;;;;5052111;28;20115;-76
2022/07/24 04:49:32;;;;;;;7.30;5.95;;;27.70;68.30;;;;;;5053745;28;20017;-76
2022/07/24 04:51:58;;;;;;;6.50;5.97;;;27.80;69.00;;;;;;5052743;28;20017;-76
2022/07/24 04:54:24;;;;;;;7.07;6.25;;;27.80;70.20;;;;;;5053446;28;20032;-76
2022/07/24 04:56:49;;;;;;;6.80;6.20;;;27.80;70.40;;;;;;5053611;28;20451;-75
2022/07/24 04:59:15;;;;;;;6.18;5.68;;;27.80;70.80;;;;;;5053064;28;20053;-76
2022/07/24 05:01:41;;;;;;;9.13;6.28;;;27.80;68.80;;;;;;5053281;28;20025;-76
2022/07/24 05:04:07;;;;;;;5.97;5.53;;;27.70;68.50;;;;;;5053422;28;20052;-75
2022/07/24 05:06:32;;;;;;;6.60;5.65;;;27.70;69.00;;;;;;5051832;28;20052;-76
2022/07/24 05:08:58;;;;;;;5.95;5.35;;;27.70;72.10;;;;;;5051967;28;20060;-76
2022/07/24 05:11:24;;;;;;;6.57;6.07;;;27.70;72.10;;;;;;5052971;28;20017;-76
2022/07/24 05:13:49;;;;;;;7.40;6.60;;;27.70;74.20;;;;;;5053141;28;20079;-76
2022/07/24 05:16:15;;;;;;;6.93;6.32;;;27.80;75.70;;;;;;5053197;28;20470;-76
2022/07/24 05:18:41;;;;;;;6.57;6.13;;;27.70;77.60;;;;;;5053126;28;20441;-76
2022/07/24 05:21:07;;;;;;;11.52;6.90;;;27.80;79.00;;;;;;5051518;28;20571;-76
2022/07/24 05:23:33;;;;;;;8.65;5.53;;;27.80;79.60;;;;;;5053144;28;20435;-76
2022/07/24 05:25:59;;;;;;;6.40;5.80;;;27.90;79.90;;;;;;5051559;28;20045;-76
2022/07/24 05:28:24;;;;;;;6.68;6.07;;;27.90;79.90;;;;;;5052737;28;20035;-76
2022/07/24 05:30:51;;;;;;;6.50;5.88;;;27.90;80.10;;;;;;5052847;28;20470;-76
2022/07/24 05:33:16;;;;;;;7.28;6.57;;;28.00;80.00;;;;;;5052531;28;20074;-76
2022/07/24 05:35:42;;;;;;;8.30;7.30;;;28.10;80.40;;;;;;5052617;28;20103;-76
2022/07/24 05:38:08;;;;;;;8.50;6.80;;;28.10;80.10;;;;;;5058836;22;20029;-76
2022/07/24 05:40:34;;;;;;;6.88;6.35;;;28.10;80.30;;;;;;5069827;28;20424;-76
2022/07/24 05:42:59;;;;;;;10.90;6.07;;;28.10;80.10;;;;;;5072406;28;20054;-76
2022/07/24 05:45:25;;;;;;;8.70;6.65;;;28.10;80.70;;;;;;5072484;28;20024;-76
2022/07/24 05:47:51;;;;;;;7.43;6.18;;;28.10;81.30;;;;;;5070974;28;20035;-76
2022/07/24 05:50:17;;;;;;;6.38;5.78;;;28.10;81.30;;;;;;5072083;28;20025;-76
2022/07/24 05:52:42;;;;;;;6.88;6.13;;;28.10;81.40;;;;;;5071040;28;20043;-76
2022/07/24 05:55:09;;;;;;;6.55;5.95;;;28.10;81.80;;;;;;5070657;28;20106;-76
2022/07/24 05:57:35;;;;;;;6.13;5.60;;;28.20;81.30;;;;;;5072059;28;20503;-76
2022/07/24 06:00:01;;;;;;;7.10;5.88;;;28.30;81.10;;;;;;5070844;28;20016;-75
2022/07/24 06:02:26;;;;;;;6.57;6.07;;;28.20;81.60;;;;;;5070728;28;20115;-76
2022/07/24 06:04:52;;;;;;;5.93;5.53;;;28.20;81.50;;;;;;5069841;28;20067;-76
2022/07/24 06:07:18;;;;;;;6.85;6.22;;;28.30;81.00;;;;;;5071860;28;20032;-76
2022/07/24 06:09:43;;;;;;;8.27;6.35;;;28.30;80.50;;;;;;5070580;28;20070;-75
2022/07/24 06:12:09;;;;;;;6.10;5.60;;;28.40;80.10;;;;;;5071810;28;20024;-75
2022/07/24 06:14:35;;;;;;;5.90;5.40;;;28.40;81.00;;;;;;5071915;28;20028;-76
2022/07/24 06:17:01;;;;;;;6.15;5.38;;;28.40;81.90;;;;;;5071828;28;20031;-75
2022/07/24 06:19:29;;;;;;;6.38;5.75;;;28.50;80.90;;;;;;5066812;28;20042;-75
2022/07/24 06:21:55;;;;;;;7.70;5.20;;;28.50;81.20;;;;;;5071620;28;20024;-76
2022/07/24 06:24:21;;;;;;;6.03;5.57;;;28.60;81.20;;;;;;5070459;28;20614;-75
2022/07/24 06:26:46;;;;;;;7.18;5.53;;;28.60;79.60;;;;;;5070421;28;20040;-76
2022/07/24 06:29:12;;;;;;;6.00;5.50;;;28.60;80.60;;;;;;5071697;28;20020;-76
2022/07/24 06:31:38;;;;;;;6.88;5.60;;;28.60;80.80;;;;;;5070365;28;20500;-75
2022/07/24 06:34:03;;;;;;;5.97;5.32;;;28.60;81.10;;;;;;5070131;28;20016;-76
2022/07/24 06:36:29;;;;;;;6.13;5.32;;;28.70;81.30;;;;;;5071403;28;20024;-75
2022/07/24 06:38:55;;;;;;;5.68;5.38;;;28.80;81.20;;;;;;5070881;28;20041;-76
2022/07/24 06:41:21;;;;;;;5.78;5.28;;;28.80;79.30;;;;;;5071046;28;20279;-76
2022/07/24 06:43:46;;;;;;;5.63;5.15;;;28.80;77.30;;;;;;5069762;28;20012;-75
2022/07/24 06:46:12;;;;;;;5.35;4.95;;;28.90;77.00;;;;;;5069666;28;20116;-75
2022/07/24 06:48:38;;;;;;;5.38;4.97;;;28.90;75.60;;;;;;5069590;28;20082;-76
2022/07/24 06:51:04;;;;;;;5.60;5.20;;;28.90;76.50;;;;;;5070698;28;20024;-75
2022/07/24 06:53:30;;;;;;;6.90;5.25;;;28.90;76.90;;;;;;5069665;28;20122;-76
2022/07/24 06:55:56;;;;;;;5.30;4.80;;;29.00;76.90;;;;;;5069622;28;20137;-75
2022/07/24 06:58:22;;;;;;;5.90;5.35;;;29.00;73.70;;;;;;5069625;28;20052;-76
2022/07/24 07:00:48;;;;;;;5.85;5.45;;;29.00;73.40;;;;;;5069536;28;20115;-75
2022/07/24 07:03:15;;;;;;;7.10;5.65;;;29.00;73.10;;;;;;5071015;28;20047;-75
2022/07/24 07:05:41;;;;;;;5.80;5.40;;;29.00;73.40;;;;;;5062122;28;20039;-76
2022/07/24 07:08:07;;;;;;;5.50;5.00;;;29.10;75.30;;;;;;5057657;28;20127;-76
2022/07/24 07:10:33;;;;;;;6.78;5.63;;;29.10;75.90;;;;;;5067741;28;20021;-76
2022/07/24 07:12:59;;;;;;;6.18;5.50;;;29.10;75.20;;;;;;5066070;28;20038;-76
2022/07/24 07:15:25;;;;;;;5.32;4.93;;;29.10;75.20;;;;;;5072594;28;20016;-76
2022/07/24 07:17:51;;;;;;;6.35;5.43;;;29.20;75.10;;;;;;5074760;28;20557;-76
2022/07/24 07:20:17;;;;;;;7.63;5.57;;;29.20;75.30;;;;;;5076260;28;20021;-75
2022/07/24 07:22:42;;;;;;;5.97;5.50;;;29.30;75.30;;;;;;5076489;28;20082;-76
2022/07/24 07:25:10;;;;;;;6.70;5.93;;;29.20;74.80;;;;;;5074884;28;20359;-75
2022/07/24 07:27:36;;;;;;;6.70;6.10;;;29.20;75.20;;;;;;5075935;28;20531;-76
2022/07/24 07:30:04;;;;;;;5.78;5.18;;;29.20;75.60;;;;;;5074877;28;20031;-76
2022/07/24 07:32:29;;;;;;;5.80;5.32;;;29.30;75.50;;;;;;5074402;28;20024;-76
2022/07/24 07:34:55;;;;;;;6.43;5.93;;;29.30;75.30;;;;;;5060931;28;20481;-76
2022/07/24 07:37:21;;;;;;;8.05;5.53;;;29.30;74.40;;;;;;5064693;28;20473;-75
2022/07/24 07:39:47;;;;;;;5.45;5.05;;;29.40;74.20;;;;;;5072218;28;20052;-75
2022/07/24 07:42:13;;;;;;;8.23;5.45;;;29.50;74.60;;;;;;5075951;28;20366;-76
2022/07/24 07:44:38;;;;;;;5.97;5.57;;;29.50;73.10;;;;;;5074461;28;20466;-76
2022/07/24 07:47:04;;;;;;;8.65;5.13;;;29.60;73.70;;;;;;5082471;28;20115;-76
2022/07/24 07:49:30;;;;;;;7.07;5.75;;;29.60;73.10;;;;;;5089430;28;20017;-75
2022/07/24 07:51:56;;;;;;;6.40;5.90;;;29.60;71.80;;;;;;5073764;28;20024;-75
2022/07/24 07:54:21;;;;;;;6.57;5.97;;;29.60;72.10;;;;;;5073963;28;20024;-76
2022/07/24 07:56:47;;;;;;;6.63;6.18;;;29.60;72.40;;;;;;5075411;28;20082;-76
2022/07/24 07:59:13;;;;;;;6.13;5.72;;;29.60;72.30;;;;;;5074407;28;20390;-76
2022/07/24 08:01:39;;;;;;;6.32;5.75;;;29.60;72.30;;;;;;5075431;28;20032;-76
2022/07/24 08:04:05;;;;;;;6.22;5.82;;;29.60;71.60;;;;;;5058564;28;20028;-76
2022/07/24 08:06:30;;;;;;;7.53;5.28;;;29.80;72.20;;;;;;5059499;28;20085;-76
2022/07/24 08:08:56;;;;;;;7.28;6.13;;;29.70;71.20;;;;;;5075207;28;20432;-76
2022/07/24 08:11:22;;;;;;;7.78;6.07;;;29.70;71.50;;;;;;5075108;28;20070;-76
2022/07/24 08:13:47;;;;;;;7.78;6.00;;;29.80;70.80;;;;;;5066620;28;20028;-77
2022/07/24 08:16:13;;;;;;;5.60;5.20;;;29.90;70.20;;;;;;5078832;28;20028;-76
2022/07/24 08:18:39;;;;;;;6.97;6.38;;;29.90;69.50;;;;;;5095524;28;20060;-77
2022/07/24 08:21:05;;;;;;;6.53;5.85;;;30.00;69.40;;;;;;5095594;28;20020;-77
2022/07/24 08:23:31;;;;;;;8.70;5.70;;;30.00;69.90;;;;;;5080780;28;20029;-77
2022/07/24 08:25:57;;;;;;;6.43;5.88;;;30.00;69.80;;;;;;5088175;28;20030;-77
2022/07/24 08:28:23;;;;;;;6.28;5.68;;;30.10;70.20;;;;;;5080263;28;20029;-74
2022/07/24 08:30:50;;;;;;;8.93;5.88;;;30.20;70.30;;;;;;5088817;28;20024;-74
2022/07/24 08:33:16;;;;;;;7.85;5.93;;;30.20;70.40;;;;;;5095081;28;20371;-75
2022/07/24 08:35:42;;;;;;;6.78;6.07;;;30.30;69.80;;;;;;5081822;28;20028;-74
2022/07/24 08:38:07;;;;;;;6.75;5.75;;;30.30;70.00;;;;;;5089398;28;20032;-74
2022/07/24 08:40:36;;;;;;;6.10;5.68;;;30.30;69.00;;;;;;5092909;28;20047;-74
2022/07/24 08:43:03;;;;;;;6.72;6.22;;;30.40;68.30;;;;;;5078302;28;20121;-74
2022/07/24 08:45:33;;;;;;;6.68;6.05;;;30.40;68.50;;;;;;5084030;28;20025;-74
2022/07/24 08:48:02;;;;;;;7.82;6.05;;;30.50;69.60;;;;;;5094801;28;20347;-75
2022/07/24 08:50:28;;;;;;;6.50;5.90;;;30.50;69.90;;;;;;5092042;28;20099;-75
2022/07/24 08:52:54;;;;;;;6.70;6.07;;;30.50;68.60;;;;;;5092999;28;20608;-74
2022/07/24 08:55:20;;;;;;;6.28;5.78;;;30.60;68.70;;;;;;5084147;28;20489;-75
2022/07/24 08:57:46;;;;;;;9.32;6.53;;;30.70;69.60;;;;;;5075820;28;20032;-75
2022/07/24 09:00:12;;;;;;;6.80;6.20;;;30.80;67.10;;;;;;5074573;28;20546;-75
2022/07/24 09:02:38;;;;;;;7.00;6.40;;;30.80;67.00;;;;;;5091568;28;20084;-75
2022/07/24 09:05:04;;;;;;;6.68;6.03;;;30.90;66.00;;;;;;5083633;28;20024;-75
2022/07/24 09:07:30;;;;;;;6.75;5.72;;;30.90;66.70;;;;;;5086101;28;20032;-74
2022/07/24 09:10:17;;;;;;;6.72;6.13;;;31.00;68.40;;;;;;5094460;28;20027;-74
2022/07/24 09:12:46;;;;;;;6.47;5.97;;;31.10;67.10;;;;;;5088510;28;20038;-74
2022/07/24 09:15:26;;;;;;;8.57;5.53;;;31.10;67.50;;;;;;5078604;28;20698;-75
2022/07/24 09:17:54;;;;;;;7.68;6.22;;;31.20;66.70;;;;;;5090532;28;20046;-75
2022/07/24 09:20:27;;;;;;;5.90;5.50;;;31.20;68.10;;;;;;5080124;28;20063;-75
2022/07/24 09:22:56;;;;;;;6.85;6.25;;;31.20;65.90;;;;;;5083016;28;20525;-75
2022/07/24 09:25:26;;;;;;;7.43;6.72;;;31.30;65.20;;;;;;5078878;28;20635;-75
2022/07/24 09:27:57;;;;;;;6.43;5.90;;;31.30;64.20;;;;;;5073346;28;20020;-75
2022/07/24 09:30:29;;;;;;;7.38;5.93;;;31.30;64.00;;;;;;5088679;28;20117;-75
2022/07/24 09:33:07;;;;;;;7.10;6.50;;;31.50;66.10;;;;;;5060145;28;20026;-75
2022/07/24 09:35:37;;;;;;;7.88;6.72;;;31.40;63.20;;;;;;5065630;28;20024;-75
2022/07/24 09:38:05;;;;;;;6.70;6.28;;;31.50;63.60;;;;;;5083236;28;20441;-74
2022/07/24 09:40:33;;;;;;;6.75;6.10;;;31.60;63.60;;;;;;5090302;28;20066;-75
2022/07/24 09:43:38;;;;;;;7.47;6.70;;;31.50;62.50;;;;;;5075129;28;20031;-74
2022/07/24 09:46:14;;;;;;;6.72;6.03;;;31.60;60.70;;;;;;5076955;28;20035;-75
2022/07/24 09:48:57;;;;;;;6.28;5.78;;;31.60;59.80;;;;;;5076362;28;20052;-75
2022/07/24 09:51:24;;;;;;;6.97;6.45;;;31.60;59.60;;;;;;5070974;28;20027;-74
2022/07/24 09:53:56;;;;;;;7.13;6.53;;;31.80;61.20;;;;;;5068997;28;20381;-74
2022/07/24 09:56:23;;;;;;;7.10;6.40;;;31.90;60.00;;;;;;5068896;28;20382;-74
2022/07/24 09:58:55;;;;;;;7.40;6.80;;;31.90;60.50;;;;;;5058672;28;20361;-74
2022/07/24 10:01:27;;;;;;;7.70;6.05;;;32.00;59.50;;;;;;5055423;28;20040;-75
2022/07/24 10:03:56;;;;;;;8.80;6.55;;;32.10;59.00;;;;;;5061541;28;20635;-74
2022/07/24 10:06:27;;;;;;;6.40;6.00;;;32.00;59.10;;;;;;5058048;28;20027;-75
2022/07/24 10:08:54;;;;;;;6.80;6.18;;;32.10;59.00;;;;;;5062080;28;20401;-74
2022/07/24 10:11:21;;;;;;;6.88;6.35;;;32.10;57.80;;;;;;5058895;28;20109;-74
2022/07/24 10:13:48;;;;;;;8.00;6.60;;;32.00;57.50;;;;;;5050585;28;20654;-74
2022/07/24 10:16:13;;;;;;;7.00;6.30;;;32.20;58.60;;;;;;5052298;28;20107;-75
2022/07/24 10:19:03;;;;;;;9.65;6.50;;;32.20;57.50;;;;;;5066346;28;20123;-74
2022/07/24 10:21:59;;;;;;;7.72;6.70;;;32.30;57.90;;;;;;5068467;28;20135;-75
2022/07/24 10:25:05;;;;;;;6.85;6.35;;;32.40;56.60;;;;;;5071412;28;20477;-74
2022/07/24 10:27:54;;;;;;;7.53;6.93;;;32.40;55.30;;;;;;5071296;28;20039;-75
2022/07/24 10:30:46;;;;;;;7.53;6.90;;;32.30;55.10;;;;;;5069490;28;20040;-74
2022/07/24 10:33:12;;;;;;;;;;;32.40;55.30;;;;;;5023268;28;20030;-74
2022/07/24 10:35:39;;;;;;;7.68;6.68;;;32.60;54.80;;;;;;5062779;28;20272;-74
2022/07/24 10:38:14;;;;;;;7.32;6.72;;;32.50;54.40;;;;;;5061772;28;20514;-74
2022/07/24 10:40:48;;;;;;;6.88;6.28;;;32.50;54.60;;;;;;5074042;28;20067;-74
2022/07/24 10:43:19;;;;;;;7.65;7.00;;;32.70;54.70;;;;;;5070032;28;20173;-75
2022/07/24 10:45:45;;;;;;;7.93;7.10;;;32.70;55.50;;;;;;5070471;28;20478;-74
2022/07/24 10:48:20;;;;;;;6.57;6.07;;;32.80;54.70;;;;;;5069925;28;20451;-75
2022/07/24 10:51:01;;;;;;;7.80;6.82;;;32.90;54.20;;;;;;5048736;28;20036;-74
2022/07/24 10:53:43;;;;;;;7.18;6.68;;;32.90;53.60;;;;;;5057462;28;20024;-74
2022/07/24 10:56:14;;;;;;;7.15;6.57;;;32.90;54.30;;;;;;5071189;28;20095;-74
2022/07/24 10:58:52;;;;;;;;;;;33.10;53.70;;;;;;5070231;28;20029;-74
2022/07/24 11:01:42;;;;;;;6.50;5.90;;;33.20;52.40;;;;;;5071146;28;19904;-74
2022/07/24 11:04:23;;;;;;;7.35;6.65;;;33.30;52.20;;;;;;5070596;28;20107;-74
2022/07/24 11:06:56;;;;;;;6.20;5.78;;;33.50;52.50;;;;;;5070843;28;20108;-75
2022/07/24 11:09:27;;;;;;;7.20;6.38;;;33.60;52.10;;;;;;5070254;28;20031;-74
2022/07/24 11:11:52;;;;;;;7.10;6.50;;;33.70;51.30;;;;;;5071005;28;20031;-74
2022/07/24 11:14:26;;;;;;;6.05;5.65;;;33.70;51.30;;;;;;5070742;28;20443;-74
2022/07/24 11:16:52;;;;;;;6.50;6.03;;;34.00;50.60;;;;;;5070864;28;20080;-74
2022/07/24 11:19:18;;;;;;;6.10;5.60;;;34.00;49.40;;;;;;5068199;28;20116;-74
2022/07/24 11:21:49;;;;;;;6.82;5.82;;;34.00;48.10;;;;;;5069223;28;20123;-75
2022/07/24 11:24:21;;;;;;;7.15;6.45;;;34.10;49.60;;;;;;5069819;28;20025;-74
2022/07/24 11:27:06;;;;;;;6.97;6.30;;;34.10;50.50;;;;;;5069062;28;20039;-74
2022/07/24 11:29:37;;;;;;;7.60;6.43;;;33.90;48.90;;;;;;5069850;28;20078;-74
2022/07/24 11:32:10;;;;;;;6.43;6.00;;;34.00;49.80;;;;;;5070167;28;20104;-75
2022/07/24 11:34:40;;;;;;;7.43;6.75;;;34.20;49.70;;;;;;5069952;28;20067;-74
2022/07/24 11:37:06;;;;;;;6.68;5.88;;;34.10;49.30;;;;;;5070235;28;20032;-74
2022/07/24 11:39:37;;;;;;;6.07;5.57;;;34.20;50.30;;;;;;5069719;28;20060;-74
2022/07/24 11:42:08;;;;;;;6.65;6.15;;;34.30;49.30;;;;;;5070969;28;20032;-75
2022/07/24 11:44:36;;;;;;;6.23;5.63;;;34.30;48.90;;;;;;5070150;28;20037;-74
2022/07/24 11:47:13;;;;;;;6.20;5.68;;;34.40;47.20;;;;;;5069124;28;20565;-74
2022/07/24 11:49:47;;;;;;;5.90;5.50;;;34.50;48.30;;;;;;5069988;28;20044;-74
2022/07/24 11:52:19;;;;;;;7.38;6.68;;;34.60;47.80;;;;;;5070759;28;20028;-74
2022/07/24 11:54:46;;;;;;;7.63;5.97;;;34.60;47.90;;;;;;5070125;28;20031;-74
2022/07/24 11:57:29;;;;;;;6.25;5.65;;;34.70;48.00;;;;;;5070722;28;20035;-75
2022/07/24 11:59:55;;;;;;;5.93;5.35;;;34.70;47.10;;;;;;5068288;28;20031;-75
2022/07/24 12:02:22;;;;;;;5.97;5.45;;;34.90;47.10;;;;;;5071575;28;20017;-74
2022/07/24 12:04:49;;;;;;;6.47;5.80;;;35.10;46.60;;;;;;5073625;28;20033;-74
2022/07/24 12:07:22;;;;;;;6.95;5.00;;;35.10;45.70;;;;;;5073981;28;20478;-74
2022/07/24 12:09:55;;;;;;;5.68;5.30;;;35.20;44.80;;;;;;5073368;28;20390;-74
2022/07/24 12:12:23;;;;;;;5.93;5.13;;;35.20;44.10;;;;;;5074060;28;20032;-74
2022/07/24 12:15:00;;;;;;;6.20;5.50;;;35.30;44.70;;;;;;5073604;28;20493;-74
2022/07/24 12:17:26;;;;;;;6.00;5.43;;;35.50;45.10;;;;;;5072348;28;20415;-74
2022/07/24 12:19:54;;;;;;;6.00;5.60;;;35.50;44.40;;;;;;5068862;28;20461;-74
2022/07/24 12:22:23;;;;;;;6.28;5.53;;;35.50;44.40;;;;;;5073517;28;20040;-74
2022/07/24 12:24:50;;;;;;;5.28;4.88;;;35.60;45.50;;;;;;5073685;28;20291;-74
2022/07/24 12:27:36;;;;;;;4.88;4.57;;;35.80;44.70;;;;;;5073608;28;20036;-75
2022/07/24 12:30:15;;;;;;;5.53;4.95;;;36.00;43.90;;;;;;5073445;28;20459;-74
2022/07/24 12:33:02;;;;;;;5.38;4.97;;;36.10;43.60;;;;;;5071856;28;20111;-74
2022/07/24 12:35:30;;;;;;;5.57;5.18;;;36.20;42.50;;;;;;5073487;28;20501;-74
2022/07/24 12:37:58;;;;;;;5.57;5.18;;;36.20;41.10;;;;;;5072560;28;20031;-74
2022/07/24 12:40:28;;;;;;;5.55;5.05;;;36.30;42.70;;;;;;5076397;28;20497;-74
2022/07/24 12:43:12;;;;;;;6.13;5.53;;;36.40;42.60;;;;;;5053044;28;20028;-74
2022/07/24 12:45:39;;;;;;;5.43;4.97;;;36.30;40.60;;;;;;5068508;28;20500;-74
2022/07/24 12:48:21;;;;;;;6.22;5.53;;;36.20;40.90;;;;;;5052840;28;20052;-74
2022/07/24 12:51:01;;;;;;;5.72;5.30;;;36.10;41.00;;;;;;5051452;28;20116;-75
2022/07/24 12:53:29;;;;;;;6.18;5.10;;;36.10;40.90;;;;;;5052755;28;20021;-74